createdAt,value
2018-05-06T00:00:34.986Z,103457.19
2018-05-06T00:03:02.506Z,103467.34
2018-05-06T00:05:30.029Z,103446.00
2018-05-06T00:07:57.608Z,103459.22
2018-05-06T00:10:25.135Z,103433.81
2018-05-06T00:12:52.659Z,103468.37
2018-05-06T00:15:20.503Z,103469.38
2018-05-06T00:17:47.965Z,103499.88
2018-05-06T00:20:15.487Z,103518.16
2018-05-06T00:22:43.048Z,103574.06
2018-05-06T00:25:10.579Z,103580.16
2018-05-06T00:27:38.186Z,103562.88
2018-05-06T00:30:05.714Z,103572.03
2018-05-06T00:32:33.253Z,103574.06
2018-05-06T00:35:00.806Z,103622.84
2018-05-06T00:37:28.336Z,103607.59
2018-05-06T00:39:56.224Z,103617.77
2018-05-06T00:42:23.763Z,103666.55
2018-05-06T00:44:51.285Z,103647.23
2018-05-06T00:47:19.256Z,103666.55
2018-05-06T00:49:46.783Z,103682.81
2018-05-06T00:52:14.319Z,103659.44
2018-05-06T00:54:44.791Z,103682.81
2018-05-06T00:57:12.312Z,103675.70
2018-05-06T00:59:39.844Z,103737.70
2018-05-06T01:02:07.446Z,103704.16
2018-05-06T01:04:34.969Z,103704.16
2018-05-06T01:07:02.501Z,103692.98
2018-05-06T01:09:30.488Z,103732.61
2018-05-06T01:11:58.014Z,103737.70
2018-05-06T01:14:25.541Z,103729.56
2018-05-06T01:16:53.203Z,103810.88
2018-05-06T01:19:20.884Z,103885.08
2018-05-06T01:21:48.411Z,103849.50
2018-05-06T01:24:15.925Z,103881.01
2018-05-06T01:26:43.468Z,103949.11
2018-05-06T01:29:10.993Z,103882.02
2018-05-06T01:31:39.003Z,103957.23
2018-05-06T01:34:06.531Z,104034.49
2018-05-06T01:36:34.052Z,103950.12
2018-05-06T01:39:01.607Z,104013.14
2018-05-06T01:41:29.136Z,104068.03
2018-05-06T01:43:56.816Z,103953.17
2018-05-06T01:46:24.338Z,103990.78
2018-05-06T01:48:51.862Z,103954.19
2018-05-06T01:51:19.467Z,103985.70
2018-05-06T01:53:46.986Z,104035.51
2018-05-06T01:56:14.554Z,104071.08
2018-05-06T01:58:42.082Z,104070.06
2018-05-06T02:01:09.779Z,104149.36
2018-05-06T02:03:37.327Z,104157.48
2018-05-06T02:06:04.864Z,104195.09
2018-05-06T02:08:32.416Z,104151.39
2018-05-06T02:10:59.966Z,104168.67
2018-05-06T02:13:27.495Z,104116.83
2018-05-06T02:15:55.073Z,104071.08
2018-05-06T02:18:22.635Z,104141.22
2018-05-06T02:20:50.162Z,104222.55
2018-05-06T02:23:17.707Z,104230.67
2018-05-06T02:25:45.250Z,104260.16
2018-05-06T02:28:12.822Z,104317.08
2018-05-06T02:30:40.352Z,104309.97
2018-05-06T02:33:07.887Z,104369.94
2018-05-06T02:35:35.443Z,104418.73
2018-05-06T02:38:02.964Z,104409.59
2018-05-06T02:40:30.519Z,104382.14
2018-05-06T02:42:58.053Z,104344.53
2018-05-06T02:45:25.749Z,104367.91
2018-05-06T02:47:53.305Z,104345.55
2018-05-06T02:50:20.830Z,104360.80
2018-05-06T02:52:48.383Z,104437.03
2018-05-06T02:55:15.918Z,104426.87
2018-05-06T02:57:43.494Z,104361.81
2018-05-06T03:00:11.023Z,104419.75
2018-05-06T03:02:38.550Z,104435.00
2018-05-06T03:05:06.129Z,104419.75
2018-05-06T03:07:33.655Z,104399.42
2018-05-06T03:10:01.174Z,104302.84
2018-05-06T03:12:28.737Z,104408.57
2018-05-06T03:14:56.272Z,104382.14
2018-05-06T03:17:23.887Z,104435.00
2018-05-06T03:19:51.419Z,104316.06
2018-05-06T03:22:18.974Z,104312.00
2018-05-06T03:24:46.537Z,104320.12
2018-05-06T03:27:14.081Z,104322.16
2018-05-06T03:29:41.605Z,104436.02
2018-05-06T03:32:09.155Z,104472.62
2018-05-06T03:34:36.681Z,104520.39
2018-05-06T03:37:04.368Z,104505.15
2018-05-06T03:39:31.912Z,104472.62
2018-05-06T03:41:59.438Z,104505.15
2018-05-06T03:44:27.099Z,104516.33
2018-05-06T03:46:55.086Z,104537.67
2018-05-06T03:49:22.618Z,104506.16
2018-05-06T03:51:50.152Z,104509.21
2018-05-06T03:54:17.743Z,104561.06
2018-05-06T03:57:05.956Z,104562.08
2018-05-06T03:59:45.343Z,104531.58
2018-05-06T04:05:22.814Z,104442.12
2018-05-06T04:07:50.344Z,104463.47
2018-05-06T04:10:17.875Z,104390.27
2018-05-06T04:12:45.427Z,104473.63
2018-05-06T04:15:12.947Z,104545.81
2018-05-06T04:17:40.498Z,104577.33
2018-05-06T04:20:08.054Z,104461.44
2018-05-06T04:22:35.603Z,104523.45
2018-05-06T04:25:03.130Z,104482.78
2018-05-06T04:27:30.684Z,104463.47
2018-05-06T04:29:58.218Z,104441.10
2018-05-06T04:32:25.775Z,104471.60
2018-05-06T04:34:53.332Z,104410.60
2018-05-06T04:37:20.870Z,104394.34
2018-05-06T04:39:48.423Z,104377.06
2018-05-06T04:42:16.019Z,104351.64
2018-05-06T04:44:43.698Z,104236.77
2018-05-06T04:47:11.228Z,104217.46
2018-05-06T04:49:38.821Z,104225.59
2018-05-06T04:52:06.361Z,104148.34
2018-05-06T04:54:33.892Z,104048.72
2018-05-06T04:57:01.447Z,103990.78
2018-05-06T04:59:28.974Z,103914.55
2018-05-06T05:01:56.526Z,103892.19
2018-05-06T05:04:24.057Z,103851.53
2018-05-06T05:06:51.601Z,103869.83
2018-05-06T05:09:19.264Z,103814.94
2018-05-06T05:11:46.796Z,103664.52
2018-05-06T05:14:14.325Z,103612.69
2018-05-06T05:16:42.062Z,103666.55
2018-05-06T05:19:09.624Z,103629.96
2018-05-06T05:21:37.193Z,103565.94
2018-05-06T05:24:04.760Z,103488.69
2018-05-06T05:26:32.346Z,103340.31
2018-05-06T05:28:59.951Z,103339.30
2018-05-06T05:31:27.513Z,102906.39
2018-05-06T05:33:55.119Z,102432.91
2018-05-06T05:36:22.752Z,101789.84
2018-05-06T05:38:50.332Z,101900.56
2018-05-06T05:41:18.304Z,101966.59
2018-05-06T05:43:45.827Z,101841.64
2018-05-06T05:46:13.363Z,101926.97
2018-05-06T05:48:40.925Z,101527.77
2018-05-06T05:51:08.452Z,102297.78
2018-05-06T05:53:36.167Z,101337.83
2018-05-06T05:56:03.691Z,101694.35
2018-05-06T05:58:31.220Z,101633.41
2018-05-06T06:00:58.889Z,101629.34
2018-05-06T06:03:26.426Z,101724.83
2018-05-06T06:05:53.962Z,101726.86
2018-05-06T06:08:21.644Z,101710.60
2018-05-06T06:10:49.171Z,101896.50
2018-05-06T06:13:16.713Z,101753.27
2018-05-06T06:15:44.295Z,101433.30
2018-05-06T06:18:11.820Z,101651.69
2018-05-06T06:20:39.350Z,101613.09
2018-05-06T06:23:06.907Z,101701.46
2018-05-06T06:25:34.461Z,102125.07
2018-05-06T06:28:02.015Z,101672.00
2018-05-06T06:30:29.538Z,101565.34
2018-05-06T06:32:57.557Z,101597.85
2018-05-06T06:35:25.105Z,101909.70
2018-05-06T06:37:52.657Z,101854.84
2018-05-06T06:40:20.220Z,101673.02
2018-05-06T06:42:47.766Z,101396.73
2018-05-06T06:45:16.261Z,101593.79
2018-05-06T06:47:43.822Z,101820.31
2018-05-06T06:50:11.354Z,101700.45
2018-05-06T06:52:38.902Z,101903.61
2018-05-06T06:55:06.779Z,102014.34
2018-05-06T06:57:34.815Z,102161.64
2018-05-06T07:00:02.354Z,102245.97
2018-05-06T07:02:29.908Z,102260.19
2018-05-06T07:04:57.634Z,102210.41
2018-05-06T07:07:25.165Z,102285.59
2018-05-06T07:09:52.715Z,102180.95
2018-05-06T07:12:20.299Z,102244.95
2018-05-06T07:14:47.819Z,102138.28
2018-05-06T07:17:15.348Z,102171.80
2018-05-06T07:19:42.915Z,102058.02
2018-05-06T07:22:10.502Z,102060.05
2018-05-06T07:24:38.026Z,102025.52
2018-05-06T07:27:05.568Z,101963.55
2018-05-06T07:29:33.130Z,101875.17
2018-05-06T07:32:00.655Z,101886.34
2018-05-06T07:34:28.211Z,101762.41
2018-05-06T07:36:55.741Z,101779.68
2018-05-06T07:39:23.348Z,101777.65
2018-05-06T07:41:50.874Z,101729.91
2018-05-06T07:44:18.399Z,101624.27
2018-05-06T07:46:45.954Z,101572.45
2018-05-06T07:49:13.502Z,101574.48
2018-05-06T07:51:41.388Z,101581.60
2018-05-06T07:54:08.939Z,101399.78
2018-05-06T07:56:36.471Z,101504.41
2018-05-06T07:59:04.024Z,101502.38
2018-05-06T08:01:31.552Z,101334.78
2018-05-06T08:03:59.244Z,101321.58
2018-05-06T08:06:26.772Z,101317.52
2018-05-06T08:08:54.294Z,101284.00
2018-05-06T08:11:21.874Z,101279.94
2018-05-06T08:13:49.408Z,101202.75
2018-05-06T08:16:16.935Z,101094.07
2018-05-06T08:18:44.499Z,101024.00
2018-05-06T08:21:12.024Z,101113.38
2018-05-06T08:23:39.587Z,101054.47
2018-05-06T08:26:07.348Z,101020.95
2018-05-06T08:28:34.874Z,100945.80
2018-05-06T08:31:02.408Z,100873.70
2018-05-06T08:33:30.008Z,100734.56
2018-05-06T08:35:57.530Z,100843.23
2018-05-06T08:38:25.072Z,100752.84
2018-05-06T08:40:52.619Z,100746.75
2018-05-06T08:43:20.147Z,100818.86
2018-05-06T08:45:47.721Z,100892.98
2018-05-06T08:48:15.272Z,100689.89
2018-05-06T08:50:42.875Z,100618.80
2018-05-06T08:53:10.394Z,100666.53
2018-05-06T08:55:37.916Z,100639.11
2018-05-06T08:58:05.598Z,100612.70
2018-05-06T09:00:33.178Z,100492.89
2018-05-06T09:03:00.698Z,100473.59
2018-05-06T09:05:28.417Z,100335.50
2018-05-06T09:07:55.940Z,100335.50
2018-05-06T09:10:23.701Z,100498.98
2018-05-06T09:12:51.253Z,100476.64
2018-05-06T09:15:18.775Z,100355.80
2018-05-06T09:17:46.367Z,100385.25
2018-05-06T09:20:13.956Z,100295.89
2018-05-06T09:22:41.479Z,100178.11
2018-05-06T09:25:09.031Z,100100.95
2018-05-06T09:27:36.779Z,100082.67
2018-05-06T09:30:04.351Z,100050.18
2018-05-06T09:32:31.875Z,100173.03
2018-05-06T09:34:59.820Z,100126.33
2018-05-06T09:37:27.352Z,100032.92
2018-05-06T09:39:54.879Z,99930.38
2018-05-06T09:42:22.426Z,100036.98
2018-05-06T09:44:49.951Z,100105.01
2018-05-06T09:47:18.104Z,99993.33
2018-05-06T09:49:45.627Z,99863.37
2018-05-06T09:52:13.141Z,99712.10
2018-05-06T09:54:40.726Z,99882.66
2018-05-06T09:57:08.484Z,99804.48
2018-05-06T09:59:36.026Z,99643.06
2018-05-06T10:02:03.560Z,99777.08
2018-05-06T10:04:31.303Z,99694.84
2018-05-06T10:06:58.837Z,99646.12
2018-05-06T10:09:26.406Z,99517.19
2018-05-06T10:11:53.966Z,99493.84
2018-05-06T10:14:21.492Z,99612.61
2018-05-06T10:16:49.035Z,99448.16
2018-05-06T10:19:16.555Z,99515.16
2018-05-06T10:21:44.159Z,99505.01
2018-05-06T10:24:11.675Z,99372.02
2018-05-06T10:26:39.200Z,99518.20
2018-05-06T10:29:06.752Z,99516.17
2018-05-06T10:31:34.282Z,99584.19
2018-05-06T10:34:01.835Z,99469.48
2018-05-06T10:36:29.361Z,99422.78
2018-05-06T10:38:56.919Z,99288.78
2018-05-06T10:41:24.498Z,99201.48
2018-05-06T10:43:52.073Z,99012.70
2018-05-06T10:46:19.600Z,99020.81
2018-05-06T10:48:47.509Z,99102.02
2018-05-06T10:51:15.051Z,98953.83
2018-05-06T10:53:42.581Z,98790.42
2018-05-06T10:56:10.155Z,98787.38
2018-05-06T10:58:37.684Z,98909.16
2018-05-06T11:01:05.227Z,99024.87
2018-05-06T11:03:32.815Z,98921.34
2018-05-06T11:06:00.330Z,98763.02
2018-05-06T11:08:27.891Z,98831.02
2018-05-06T11:10:55.437Z,98601.64
2018-05-06T11:13:22.966Z,98663.55
2018-05-06T11:15:50.528Z,98648.33
2018-05-06T11:18:18.198Z,98426.07
2018-05-06T11:20:45.719Z,98409.84
2018-05-06T11:23:13.235Z,98437.23
2018-05-06T11:25:40.797Z,98372.28
2018-05-06T11:28:08.330Z,98247.47
2018-05-06T11:30:35.912Z,98216.01
2018-05-06T11:33:03.442Z,98156.14
2018-05-06T11:35:30.963Z,98322.56
2018-05-06T11:37:58.511Z,98089.16
2018-05-06T11:40:26.032Z,98282.98
2018-05-06T11:42:53.579Z,98236.30
2018-05-06T11:45:21.103Z,98354.02
2018-05-06T11:47:48.642Z,98336.77
2018-05-06T11:50:16.163Z,98296.17
2018-05-06T11:52:44.112Z,98408.82
2018-05-06T11:55:11.627Z,98338.80
2018-05-06T11:57:39.148Z,98145.98
2018-05-06T12:00:06.699Z,97998.86
2018-05-06T12:02:34.233Z,97996.83
2018-05-06T12:05:01.772Z,97918.70
2018-05-06T12:07:29.307Z,98060.75
2018-05-06T12:09:56.872Z,98078.00
2018-05-06T12:12:24.433Z,97963.34
2018-05-06T12:14:52.182Z,97991.75
2018-05-06T12:17:19.698Z,98047.56
2018-05-06T12:19:47.218Z,98031.33
2018-05-06T12:22:14.781Z,98040.45
2018-05-06T12:24:42.335Z,98091.19
2018-05-06T12:27:09.871Z,97796.94
2018-05-06T12:29:37.416Z,97900.43
2018-05-06T12:32:04.941Z,97790.84
2018-05-06T12:34:32.491Z,97820.27
2018-05-06T12:38:58.093Z,97667.06
2018-05-06T12:41:25.648Z,97930.88
2018-05-06T12:43:53.371Z,97756.35
2018-05-06T12:46:20.905Z,98016.11
2018-05-06T12:48:48.448Z,97782.73
2018-05-06T12:51:16.015Z,97690.40
2018-05-06T12:53:43.576Z,97675.18
2018-05-06T12:56:11.415Z,97659.96
2018-05-06T12:58:38.930Z,97739.09
2018-05-06T13:01:06.445Z,97819.26
2018-05-06T13:03:34.001Z,97753.30
2018-05-06T13:06:01.553Z,97814.19
2018-05-06T13:08:29.094Z,97799.98
2018-05-06T13:10:56.667Z,97638.66
2018-05-06T13:13:24.237Z,97640.68
2018-05-06T13:15:51.782Z,97609.23
2018-05-06T13:18:19.480Z,97696.48
2018-05-06T13:20:46.997Z,97598.06
2018-05-06T13:23:14.521Z,97576.77
2018-05-06T13:25:42.074Z,97563.58
2018-05-06T13:28:09.662Z,97536.18
2018-05-06T13:30:37.491Z,97540.23
2018-05-06T13:33:05.120Z,97557.48
2018-05-06T13:35:32.818Z,97710.69
2018-05-06T13:38:00.359Z,97652.86
2018-05-06T13:40:27.907Z,97616.33
2018-05-06T13:42:55.641Z,97700.55
2018-05-06T13:45:23.399Z,97657.93
2018-05-06T13:47:50.911Z,97640.68
2018-05-06T13:50:18.719Z,97648.80
2018-05-06T13:52:46.193Z,97629.52
2018-05-06T13:55:13.725Z,97644.74
2018-05-06T13:57:41.296Z,97540.23
2018-05-06T14:00:08.812Z,97497.62
2018-05-06T14:02:36.366Z,97577.78
2018-05-06T14:05:04.880Z,97532.13
2018-05-06T14:07:32.417Z,97673.15
2018-05-06T14:10:00.151Z,97688.37
2018-05-06T14:12:27.727Z,97501.69
2018-05-06T14:14:55.244Z,97472.27
2018-05-06T14:17:22.758Z,97323.13
2018-05-06T14:19:50.662Z,97409.36
2018-05-06T14:22:18.188Z,97534.16
2018-05-06T14:24:45.711Z,97528.06
2018-05-06T14:27:13.683Z,97527.05
2018-05-06T14:29:41.247Z,97470.23
2018-05-06T14:32:08.776Z,97360.66
2018-05-06T14:34:36.421Z,97477.34
2018-05-06T14:37:04.506Z,97514.88
2018-05-06T14:39:32.037Z,97486.47
2018-05-06T14:41:59.558Z,97581.84
2018-05-06T14:44:27.111Z,97544.30
2018-05-06T14:47:06.696Z,97449.94
2018-05-06T14:49:34.259Z,97394.14
2018-05-06T14:52:01.786Z,97210.52
2018-05-06T14:54:29.316Z,97479.36
2018-05-06T14:56:56.920Z,97605.17
2018-05-06T14:59:24.607Z,97526.03
2018-05-06T15:01:52.161Z,97382.98
2018-05-06T15:04:19.698Z,97492.55
2018-05-06T15:06:47.675Z,97438.78
2018-05-06T15:09:15.190Z,97468.20
2018-05-06T15:11:42.717Z,97486.47
2018-05-06T15:14:10.295Z,97291.67
2018-05-06T15:16:37.835Z,97432.70
2018-05-06T15:19:05.403Z,97468.20
2018-05-06T15:21:32.926Z,97518.94
2018-05-06T15:24:00.447Z,97468.20
2018-05-06T15:26:27.996Z,97425.59
2018-05-06T15:28:55.568Z,97376.89
2018-05-06T15:31:23.505Z,97388.05
2018-05-06T15:33:51.043Z,97394.14
2018-05-06T15:36:18.563Z,97417.48
2018-05-06T15:38:46.129Z,97500.67
2018-05-06T15:41:13.658Z,97395.16
2018-05-06T15:43:41.216Z,97243.99
2018-05-06T15:46:08.740Z,97374.86
2018-05-06T15:48:36.291Z,97358.63
2018-05-06T15:51:03.819Z,97411.39
2018-05-06T15:53:31.415Z,97444.87
2018-05-06T15:55:58.930Z,97350.52
2018-05-06T15:58:26.478Z,97425.59
2018-05-06T16:00:54.047Z,97401.24
2018-05-06T16:03:33.525Z,97559.52
2018-05-06T16:06:01.095Z,97490.52
2018-05-06T16:08:28.628Z,97482.41
2018-05-06T16:10:56.146Z,97504.73
2018-05-06T16:13:24.034Z,97377.91
2018-05-06T16:15:51.560Z,97343.41
2018-05-06T16:18:19.084Z,97541.25
2018-05-06T16:20:46.627Z,97617.34
2018-05-06T16:23:14.192Z,97481.39
2018-05-06T16:25:41.716Z,97589.95
2018-05-06T16:28:09.659Z,97502.70
2018-05-06T16:30:37.217Z,97565.60
2018-05-06T16:33:04.743Z,97579.80
2018-05-06T16:35:32.481Z,97582.84
2018-05-06T16:37:59.998Z,97616.33
2018-05-06T16:40:27.516Z,97665.03
2018-05-06T16:42:55.063Z,97587.92
2018-05-06T16:45:22.604Z,97680.25
2018-05-06T16:47:50.357Z,97742.14
2018-05-06T16:50:17.894Z,97700.55
2018-05-06T16:52:45.496Z,97606.19
2018-05-06T16:55:13.492Z,97611.26
2018-05-06T16:57:41.007Z,97826.36
2018-05-06T17:00:08.559Z,97811.14
2018-05-06T17:02:36.109Z,97771.57
2018-05-06T17:05:03.663Z,97817.23
2018-05-06T17:07:31.223Z,97795.92
2018-05-06T17:09:58.780Z,97814.19
2018-05-06T17:12:26.328Z,97733.02
2018-05-06T17:14:53.862Z,97818.24
2018-05-06T17:17:21.847Z,97889.27
2018-05-06T17:19:49.421Z,97965.37
2018-05-06T17:22:16.944Z,97912.61
2018-05-06T17:24:44.557Z,97966.38
2018-05-06T17:27:12.112Z,97954.21
2018-05-06T17:29:39.687Z,98044.52
2018-05-06T17:32:08.488Z,98076.98
2018-05-06T17:34:36.041Z,98213.98
2018-05-06T17:37:03.972Z,98144.98
2018-05-06T17:39:31.502Z,98219.05
2018-05-06T17:41:59.022Z,98375.33
2018-05-06T17:44:26.562Z,98275.88
2018-05-06T17:46:54.078Z,98359.09
2018-05-06T17:49:21.655Z,98436.22
2018-05-06T17:51:49.171Z,98424.05
2018-05-06T17:54:16.684Z,98482.91
2018-05-06T17:56:44.278Z,98524.52
2018-05-06T17:59:11.810Z,98553.94
2018-05-06T18:01:39.414Z,98519.44
2018-05-06T18:04:08.068Z,98419.98
2018-05-06T18:06:36.605Z,98035.38
2018-05-06T18:09:04.227Z,97940.00
2018-05-06T18:11:31.747Z,97644.74
2018-05-06T18:13:59.273Z,97827.38
2018-05-06T18:16:26.838Z,98156.14
2018-05-06T18:18:54.355Z,98253.55
2018-05-06T18:21:21.865Z,98204.84
2018-05-06T18:23:49.407Z,98576.27
2018-05-06T18:26:16.920Z,98632.09
2018-05-06T18:28:44.496Z,98759.97
2018-05-06T18:31:12.015Z,98959.91
2018-05-06T18:33:39.587Z,99025.89
2018-05-06T18:36:07.210Z,99217.73
2018-05-06T18:38:34.742Z,99277.63
2018-05-06T18:41:02.263Z,99246.16
2018-05-06T18:43:29.983Z,99345.63
2018-05-06T18:45:57.516Z,99402.48
2018-05-06T18:48:25.049Z,99398.42
2018-05-06T18:50:52.599Z,99558.81
2018-05-06T18:53:20.153Z,99549.67
2018-05-06T18:55:47.690Z,99710.07
2018-05-06T18:58:15.421Z,99815.66
2018-05-06T19:00:42.967Z,99817.69
2018-05-06T19:03:10.482Z,99910.07
2018-05-06T19:05:38.375Z,99953.73
2018-05-06T19:08:06.610Z,100040.03
2018-05-06T19:10:34.553Z,100153.75
2018-05-06T19:13:02.121Z,100224.82
2018-05-06T19:15:29.734Z,100232.94
2018-05-06T19:17:57.448Z,100167.96
2018-05-06T19:20:24.970Z,100144.61
2018-05-06T19:22:52.491Z,100273.55
2018-05-06T19:25:20.578Z,100335.50
2018-05-06T19:27:48.102Z,100341.59
2018-05-06T19:30:15.644Z,100309.09
2018-05-06T19:32:43.794Z,100522.33
2018-05-06T19:35:11.255Z,100455.31
2018-05-06T19:37:38.783Z,100525.37
2018-05-06T19:40:06.353Z,100472.58
2018-05-06T19:42:33.881Z,100597.48
2018-05-06T19:45:01.419Z,100642.16
2018-05-06T19:47:28.992Z,100708.16
2018-05-06T19:49:56.540Z,100629.97
2018-05-06T19:52:24.059Z,100642.16
2018-05-06T19:54:51.923Z,100608.64
2018-05-06T19:57:19.531Z,100658.41
2018-05-06T19:59:47.120Z,100628.95
2018-05-06T20:02:14.655Z,100813.77
2018-05-06T20:04:42.189Z,100805.66
2018-05-06T20:07:09.743Z,100912.28
2018-05-06T20:09:37.271Z,100921.42
2018-05-06T20:12:04.843Z,100869.62
2018-05-06T20:14:32.366Z,100857.45
2018-05-06T20:17:00.131Z,100939.70
2018-05-06T20:19:27.660Z,100970.17
2018-05-06T20:21:55.235Z,100880.80
2018-05-06T20:24:22.810Z,100972.20
2018-05-06T20:26:50.329Z,101019.94
2018-05-06T20:29:17.861Z,101080.87
2018-05-06T20:31:45.451Z,101061.58
2018-05-06T20:34:12.985Z,101065.64
2018-05-06T20:36:40.511Z,101034.16
2018-05-06T20:39:08.064Z,101009.78
2018-05-06T20:41:35.600Z,101254.55
2018-05-06T20:44:03.181Z,101276.89
2018-05-06T20:46:30.720Z,101305.33
2018-05-06T20:48:58.252Z,101288.06
2018-05-06T20:51:25.806Z,101196.66
2018-05-06T20:53:53.397Z,101152.98
2018-05-06T20:56:20.923Z,101303.30
2018-05-06T20:58:48.444Z,101215.95
2018-05-06T21:01:16.008Z,101223.05
2018-05-06T21:03:43.530Z,101214.94
2018-05-06T21:06:11.082Z,101253.53
2018-05-06T21:08:38.639Z,101333.77
2018-05-06T21:11:06.159Z,101216.97
2018-05-06T21:13:33.789Z,101382.52
2018-05-06T21:16:01.297Z,101499.33
2018-05-06T21:18:29.046Z,101589.73
2018-05-06T21:20:56.562Z,101524.72
2018-05-06T21:23:24.092Z,101455.65
2018-05-06T21:25:51.651Z,101589.73
2018-05-06T21:28:19.181Z,101618.17
2018-05-06T21:30:46.810Z,101659.81
2018-05-06T21:33:14.291Z,101604.97
2018-05-06T21:35:41.833Z,101690.29
2018-05-06T21:38:09.349Z,101776.63
2018-05-06T21:40:36.894Z,101786.78
2018-05-06T21:43:04.455Z,101896.50
2018-05-06T21:45:32.051Z,101945.27
2018-05-06T21:47:59.515Z,102018.41
2018-05-06T21:50:27.498Z,102066.15
2018-05-06T21:52:55.029Z,102100.69
2018-05-06T21:55:22.573Z,101953.39
2018-05-06T21:57:50.131Z,101948.31
2018-05-06T22:00:17.768Z,101910.72
2018-05-06T22:02:45.324Z,102080.38
2018-05-06T22:05:12.847Z,102123.04
2018-05-06T22:07:40.397Z,102141.33
2018-05-06T22:10:07.918Z,102203.30
2018-05-06T22:12:35.576Z,102221.58
2018-05-06T22:15:03.119Z,102191.11
2018-05-06T22:17:30.638Z,102163.67
2018-05-06T22:19:58.196Z,102156.56
2018-05-06T22:22:25.805Z,102228.70
2018-05-06T22:24:53.419Z,102198.22
2018-05-06T22:27:20.942Z,102237.84
2018-05-06T22:29:48.466Z,102276.45
2018-05-06T22:32:16.042Z,102333.34
2018-05-06T22:34:43.591Z,102357.72
2018-05-06T22:37:11.172Z,102371.95
2018-05-06T22:39:38.704Z,102289.66
2018-05-06T22:42:06.239Z,102315.05
2018-05-06T22:44:33.790Z,102359.75
2018-05-06T22:47:01.320Z,102290.67
2018-05-06T22:49:28.874Z,102348.58
2018-05-06T22:51:56.402Z,102390.23
2018-05-06T22:54:23.950Z,102487.77
2018-05-06T22:56:51.480Z,102394.30
2018-05-06T22:59:19.449Z,102305.91
2018-05-06T23:01:46.985Z,102390.23
2018-05-06T23:04:14.516Z,102455.26
2018-05-06T23:06:42.063Z,102443.06
2018-05-06T23:09:09.839Z,102412.59
2018-05-06T23:11:37.451Z,102432.91
2018-05-06T23:14:04.915Z,102410.55
2018-05-06T23:16:32.465Z,102466.44
2018-05-06T23:18:59.986Z,102373.98
2018-05-06T23:21:27.868Z,102468.47
2018-05-06T23:23:55.389Z,102356.70
2018-05-06T23:26:22.923Z,102400.39
2018-05-06T23:28:50.702Z,102475.58
2018-05-06T23:31:18.222Z,102526.38
2018-05-06T23:33:45.788Z,102551.78
2018-05-06T23:36:13.319Z,102633.06
2018-05-06T23:38:40.870Z,102553.81
2018-05-06T23:41:08.816Z,102441.03
2018-05-06T23:43:36.334Z,102474.56
2018-05-06T23:46:03.867Z,102457.29
2018-05-06T23:48:31.428Z,102585.31
2018-05-06T23:50:59.124Z,102710.28
2018-05-06T23:53:26.643Z,102730.61
2018-05-06T23:55:54.188Z,102719.43
2018-05-06T23:58:21.737Z,102758.04
